Time;durP1;ratioP1;P1;durP2;ratioP2;P2;SDS_P1;SDS_P2;PMS_P1;PMS_P2;Temp;Humidity;BMP_temperature;BMP_pressure;BME280_temperature;BME280_humidity;BME280_pressure;Samples;Min_cycle;Max_cycle;Signal;HPM_P1;HPM_P2
2022/01/09 00:01:26;;;;;;;20.75;13.52;;;;;;;;;;5045822;28;20072;-60
2022/01/09 00:03:52;;;;;;;25.88;14.82;;;;;;;;;;5046864;28;20041;-60
2022/01/09 00:06:19;;;;;;;26.48;14.60;;;;;;;;;;5042719;28;20474;-60
2022/01/09 00:08:45;;;;;;;24.23;14.55;;;;;;;;;;5033232;28;20105;-60
2022/01/09 00:11:12;;;;;;;28.05;16.00;;;;;;;;;;5030657;28;20045;-60
2022/01/09 00:13:38;;;;;;;22.92;12.75;;;;;;;;;;5046236;28;20030;-60
2022/01/09 00:16:04;;;;;;;28.98;13.65;;;;;;;;;;5032429;28;20051;-60
2022/01/09 00:18:30;;;;;;;23.17;13.77;;;;;;;;;;5051452;28;20561;-60
2022/01/09 00:20:57;;;;;;;26.20;14.13;;;;;;;;;;5049083;28;20036;-60
2022/01/09 00:23:23;;;;;;;32.67;14.18;;;;;;;;;;5049733;28;20381;-60
2022/01/09 00:25:49;;;;;;;29.52;14.90;;;;;;;;;;5050692;28;20096;-60
2022/01/09 00:28:15;;;;;;;29.38;14.18;;;;;;;;;;5048502;28;20048;-60
2022/01/09 00:30:41;;;;;;;41.17;15.68;;;;;;;;;;5048208;28;20045;-60
2022/01/09 00:33:08;;;;;;;29.27;13.95;;;;;;;;;;5049805;28;20033;-60
2022/01/09 00:35:34;;;;;;;43.53;16.25;;;;;;;;;;5031801;28;20099;-60
2022/01/09 00:38:01;;;;;;;31.60;14.35;;;;;;;;;;5030668;28;20400;-60
2022/01/09 00:40:27;;;;;;;35.15;15.32;;;;;;;;;;5049902;28;20072;-60
2022/01/09 00:42:53;;;;;;;45.25;16.95;;;;;;;;;;5047891;28;20090;-60
2022/01/09 00:45:19;;;;;;;30.73;14.20;;;;;;;;;;5032547;28;20495;-60
2022/01/09 00:47:46;;;;;;;52.15;16.90;;;;;;;;;;5051084;28;20560;-60
2022/01/09 00:50:12;;;;;;;48.65;16.08;;;;;;;;;;5048894;28;20115;-60
2022/01/09 00:52:39;;;;;;;53.28;17.20;;;;;;;;;;5049339;28;20143;-60
2022/01/09 00:55:06;;;;;;;46.30;15.80;;;;;;;;;;5034873;28;20068;-60
2022/01/09 00:57:33;;;;;;;26.63;13.65;;;;;;;;;;5044628;28;20077;-60
2022/01/09 00:59:59;;;;;;;51.65;16.77;;;;;;;;;;5045793;28;20037;-60
2022/01/09 01:02:25;;;;;;;40.47;15.85;;;;;;;;;;5049402;28;20056;-60
2022/01/09 01:04:51;;;;;;;41.15;16.13;;;;;;;;;;5045024;28;20159;-60
2022/01/09 01:07:19;;;;;;;32.30;14.88;;;;;;;;;;5032524;28;20049;-60
2022/01/09 01:09:46;;;;;;;30.13;14.25;;;;;;;;;;5049645;28;20056;-60
2022/01/09 01:12:12;;;;;;;26.92;13.15;;;;;;;;;;5036419;28;20052;-60
2022/01/09 01:14:38;;;;;;;29.35;13.95;;;;;;;;;;5049402;28;20098;-60
2022/01/09 01:17:05;;;;;;;29.70;13.13;;;;;;;;;;5032356;28;20044;-60
2022/01/09 01:19:31;;;;;;;33.35;13.60;;;;;;;;;;5035547;28;20053;-60
2022/01/09 01:21:58;;;;;;;35.58;13.77;;;;;;;;;;5048745;28;20154;-60
2022/01/09 01:24:24;;;;;;;38.42;13.25;;;;;;;;;;5043990;28;20124;-60
2022/01/09 01:26:51;;;;;;;33.60;10.57;;;;;;;;;;5033623;28;20085;-60
2022/01/09 01:29:18;;;;;;;35.22;10.02;;;;;;;;;;5046748;28;20048;-60
2022/01/09 01:31:44;;;;;;;29.25;8.07;;;;;;;;;;5047318;28;20105;-60
2022/01/09 01:34:12;;;;;;;39.78;7.85;;;;;;;;;;5047376;28;20347;-60
2022/01/09 01:36:39;;;;;;;48.70;9.88;;;;;;;;;;5046183;28;20437;-60
2022/01/09 01:39:05;;;;;;;40.45;8.85;;;;;;;;;;5046446;28;20087;-61
2022/01/09 01:41:32;;;;;;;50.47;8.18;;;;;;;;;;5033006;28;20044;-60
2022/01/09 01:43:58;;;;;;;48.88;7.22;;;;;;;;;;5049388;28;20544;-60
2022/01/09 01:46:24;;;;;;;66.13;7.80;;;;;;;;;;5046026;28;20128;-60
2022/01/09 01:48:50;;;;;;;61.10;8.75;;;;;;;;;;5029086;28;20496;-60
2022/01/09 01:51:19;;;;;;;68.05;8.50;;;;;;;;;;5033411;28;20124;-59
2022/01/09 01:53:45;;;;;;;64.00;9.13;;;;;;;;;;5048278;28;20065;-60
2022/01/09 01:56:19;;;;;;;58.88;8.63;;;;;;;;;;5047993;28;20041;-60
2022/01/09 01:58:45;;;;;;;79.07;9.75;;;;;;;;;;5047084;28;20036;-60
2022/01/09 02:01:11;;;;;;;75.25;9.30;;;;;;;;;;5048488;28;20052;-60
2022/01/09 02:03:38;;;;;;;62.28;8.85;;;;;;;;;;5047503;28;20056;-60
2022/01/09 02:06:05;;;;;;;68.32;9.38;;;;;;;;;;5045073;28;20057;-60
2022/01/09 02:08:32;;;;;;;53.45;8.55;;;;;;;;;;5044837;28;20033;-60
2022/01/09 02:10:58;;;;;;;51.78;8.57;;;;;;;;;;5047784;28;20044;-60
2022/01/09 02:13:24;;;;;;;61.13;9.45;;;;;;;;;;5031436;28;20053;-60
2022/01/09 02:15:50;;;;;;;52.55;9.50;;;;;;;;;;5048354;28;20045;-60
2022/01/09 02:18:18;;;;;;;48.88;8.02;;;;;;;;;;5048424;28;20048;-60
2022/01/09 02:20:45;;;;;;;55.72;7.90;;;;;;;;;;5047508;28;20132;-60
2022/01/09 02:23:12;;;;;;;84.85;12.90;;;;;;;;;;5047521;28;20041;-60
2022/01/09 02:25:39;;;;;;;72.50;11.05;;;;;;;;;;5047793;28;20051;-60
2022/01/09 02:28:06;;;;;;;73.25;10.18;;;;;;;;;;5047395;28;20063;-60
2022/01/09 02:30:32;;;;;;;78.50;11.82;;;;;;;;;;5046454;28;20055;-60
2022/01/09 02:32:59;;;;;;;87.60;10.70;;;;;;;;;;5047278;28;20041;-60
2022/01/09 02:35:26;;;;;;;72.90;9.55;;;;;;;;;;5045875;28;20045;-60
2022/01/09 02:37:52;;;;;;;93.85;10.88;;;;;;;;;;5047639;28;20037;-60
2022/01/09 02:40:18;;;;;;;109.72;12.60;;;;;;;;;;5031618;28;21957;-60
2022/01/09 02:42:45;;;;;;;78.35;9.55;;;;;;;;;;5045087;28;20033;-60
2022/01/09 02:45:11;;;;;;;92.78;12.13;;;;;;;;;;5045812;28;20207;-60
2022/01/09 02:47:38;;;;;;;80.63;11.70;;;;;;;;;;5048252;28;20051;-60
2022/01/09 02:50:16;;;;;;;86.32;10.65;;;;;;;;;;5046540;28;20091;-60
2022/01/09 02:52:50;;;;;;;92.45;10.88;;;;;;;;;;5032225;28;20044;-60
2022/01/09 02:55:16;;;;;;;101.63;11.68;;;;;;;;;;5045928;28;20049;-60
2022/01/09 02:57:44;;;;;;;84.20;10.13;;;;;;;;;;5032022;28;20075;-60
2022/01/09 03:00:13;;;;;;;67.28;8.27;;;;;;;;;;5048097;28;20095;-60
2022/01/09 03:02:39;;;;;;;82.68;9.23;;;;;;;;;;5046277;28;20033;-60
2022/01/09 03:05:06;;;;;;;75.25;11.27;;;;;;;;;;5046157;28;20100;-60
2022/01/09 03:07:32;;;;;;;59.22;9.25;;;;;;;;;;5030042;28;20061;-60
2022/01/09 03:09:58;;;;;;;75.40;11.32;;;;;;;;;;5029235;28;20051;-60
2022/01/09 03:12:24;;;;;;;64.97;8.90;;;;;;;;;;5026058;28;20045;-60
2022/01/09 03:14:50;;;;;;;67.85;8.82;;;;;;;;;;5046110;28;20044;-60
2022/01/09 03:17:17;;;;;;;65.57;7.45;;;;;;;;;;5045764;28;20377;-60
2022/01/09 03:19:43;;;;;;;71.35;11.02;;;;;;;;;;5045789;28;20488;-60
2022/01/09 03:22:09;;;;;;;64.65;7.97;;;;;;;;;;5031345;28;20045;-60
2022/01/09 03:24:35;;;;;;;52.28;6.88;;;;;;;;;;5033781;28;20083;-60
2022/01/09 03:27:02;;;;;;;83.00;8.80;;;;;;;;;;5047538;28;20052;-60
2022/01/09 03:29:29;;;;;;;58.40;7.90;;;;;;;;;;5045953;28;20128;-60
2022/01/09 03:31:55;;;;;;;66.90;7.72;;;;;;;;;;5047141;28;20041;-60
2022/01/09 03:34:21;;;;;;;50.85;6.70;;;;;;;;;;5045708;28;20476;-60
2022/01/09 03:36:47;;;;;;;54.00;6.72;;;;;;;;;;5045726;28;20047;-60
2022/01/09 03:39:13;;;;;;;47.47;6.47;;;;;;;;;;5033985;28;20538;-60
2022/01/09 03:41:39;;;;;;;71.18;7.22;;;;;;;;;;5047154;28;20477;-60
2022/01/09 03:44:05;;;;;;;56.90;7.60;;;;;;;;;;5043771;28;20033;-60
2022/01/09 03:46:32;;;;;;;69.47;8.20;;;;;;;;;;5047139;28;20443;-60
2022/01/09 03:48:58;;;;;;;55.15;6.63;;;;;;;;;;5037246;28;20067;-61
2022/01/09 03:51:26;;;;;;;50.63;7.13;;;;;;;;;;5050304;28;20119;-60
2022/01/09 03:53:52;;;;;;;55.88;6.57;;;;;;;;;;5051019;28;20037;-60
2022/01/09 03:56:19;;;;;;;34.40;4.70;;;;;;;;;;5049892;28;20071;-60
2022/01/09 03:58:45;;;;;;;48.28;6.85;;;;;;;;;;5049445;28;20036;-60
2022/01/09 04:01:11;;;;;;;47.80;7.10;;;;;;;;;;5050099;28;20396;-60
2022/01/09 04:03:37;;;;;;;50.75;7.32;;;;;;;;;;5050499;28;20040;-60
2022/01/09 04:06:03;;;;;;;40.95;5.20;;;;;;;;;;5056310;28;20057;-60
2022/01/09 04:08:31;;;;;;;40.63;5.57;;;;;;;;;;5035236;28;20412;-60
2022/01/09 04:10:57;;;;;;;47.45;6.30;;;;;;;;;;5051814;28;20053;-60
2022/01/09 04:13:23;;;;;;;50.50;5.90;;;;;;;;;;5034324;28;20041;-60
2022/01/09 04:15:49;;;;;;;45.85;6.88;;;;;;;;;;5019965;28;20142;-60
2022/01/09 04:18:16;;;;;;;46.92;7.57;;;;;;;;;;5051866;28;20036;-60
2022/01/09 04:20:43;;;;;;;39.95;4.82;;;;;;;;;;5049873;28;20092;-60
2022/01/09 04:23:09;;;;;;;37.10;5.63;;;;;;;;;;5050943;28;20069;-60
2022/01/09 04:25:35;;;;;;;36.70;5.45;;;;;;;;;;5035767;28;20051;-60
2022/01/09 04:28:01;;;;;;;51.15;6.78;;;;;;;;;;5052819;28;20164;-60
2022/01/09 04:30:27;;;;;;;52.53;7.55;;;;;;;;;;5050556;28;20068;-60
2022/01/09 04:32:53;;;;;;;35.88;5.68;;;;;;;;;;5053961;28;20033;-60
2022/01/09 04:35:20;;;;;;;38.22;5.85;;;;;;;;;;5046957;28;20087;-60
2022/01/09 04:37:47;;;;;;;44.90;5.72;;;;;;;;;;5057797;28;20037;-60
2022/01/09 04:40:15;;;;;;;32.92;5.65;;;;;;;;;;5037194;28;20060;-60
2022/01/09 04:42:45;;;;;;;37.85;5.43;;;;;;;;;;5051691;28;20051;-60
2022/01/09 04:45:13;;;;;;;48.03;4.95;;;;;;;;;;5052556;28;20045;-60
2022/01/09 04:47:43;;;;;;;43.22;6.40;;;;;;;;;;5051507;28;20052;-60
2022/01/09 04:50:13;;;;;;;39.95;6.90;;;;;;;;;;5054193;28;20545;-60
2022/01/09 04:52:40;;;;;;;31.90;4.60;;;;;;;;;;5051242;28;20049;-60
2022/01/09 04:55:07;;;;;;;28.52;4.25;;;;;;;;;;5029179;28;20922;-60
2022/01/09 04:57:33;;;;;;;31.63;5.53;;;;;;;;;;5047575;28;20056;-60
2022/01/09 04:59:59;;;;;;;33.65;4.95;;;;;;;;;;5056314;28;20507;-60
2022/01/09 05:02:25;;;;;;;32.75;7.03;;;;;;;;;;5050520;28;20040;-60
2022/01/09 05:04:52;;;;;;;25.77;3.33;;;;;;;;;;5034859;28;20044;-60
2022/01/09 05:07:18;;;;;;;25.00;4.15;;;;;;;;;;5053075;28;20049;-60
2022/01/09 05:09:44;;;;;;;21.85;4.70;;;;;;;;;;5051847;28;20055;-60
2022/01/09 05:12:10;;;;;;;27.52;4.45;;;;;;;;;;5048920;28;20120;-60
2022/01/09 05:14:36;;;;;;;28.45;5.22;;;;;;;;;;5049813;28;20493;-60
2022/01/09 05:17:02;;;;;;;34.97;5.07;;;;;;;;;;5025490;28;20477;-60
2022/01/09 05:19:31;;;;;;;33.88;4.18;;;;;;;;;;5033680;28;20057;-60
2022/01/09 05:21:57;;;;;;;34.45;5.07;;;;;;;;;;5049772;28;20500;-60
2022/01/09 05:24:24;;;;;;;36.95;7.22;;;;;;;;;;5051301;28;20056;-60
2022/01/09 05:26:50;;;;;;;33.90;4.70;;;;;;;;;;5050076;28;20043;-60
2022/01/09 05:29:16;;;;;;;32.45;7.88;;;;;;;;;;5036704;28;20117;-60
2022/01/09 05:31:44;;;;;;;30.58;5.82;;;;;;;;;;5051815;28;20459;-60
2022/01/09 05:34:10;;;;;;;32.40;4.53;;;;;;;;;;5051194;28;20041;-60
2022/01/09 05:36:36;;;;;;;34.35;4.28;;;;;;;;;;5049979;28;20348;-60
2022/01/09 05:39:03;;;;;;;26.30;5.13;;;;;;;;;;5031277;28;20048;-60
2022/01/09 05:41:29;;;;;;;37.47;3.70;;;;;;;;;;5033934;28;20044;-60
2022/01/09 05:43:55;;;;;;;32.75;4.07;;;;;;;;;;5052773;28;20040;-60
2022/01/09 05:46:22;;;;;;;36.70;5.00;;;;;;;;;;5035860;28;20099;-60
2022/01/09 05:48:48;;;;;;;30.60;3.83;;;;;;;;;;5053560;28;20042;-60
2022/01/09 05:51:14;;;;;;;39.63;6.68;;;;;;;;;;5056387;28;20051;-60
2022/01/09 05:53:40;;;;;;;30.80;4.85;;;;;;;;;;5052830;28;20044;-60
2022/01/09 05:56:06;;;;;;;35.53;4.05;;;;;;;;;;5048562;28;20037;-60
2022/01/09 05:58:34;;;;;;;29.40;3.58;;;;;;;;;;5050887;28;20049;-60
2022/01/09 06:01:00;;;;;;;27.92;4.38;;;;;;;;;;5051605;28;20048;-60
2022/01/09 06:03:26;;;;;;;33.10;5.18;;;;;;;;;;5034777;28;20047;-60
2022/01/09 06:05:52;;;;;;;29.67;4.78;;;;;;;;;;5050014;28;20060;-60
2022/01/09 06:08:19;;;;;;;33.65;4.35;;;;;;;;;;5049104;28;20049;-60
2022/01/09 06:10:45;;;;;;;37.20;4.32;;;;;;;;;;5046709;28;20132;-60
2022/01/09 06:13:11;;;;;;;28.80;4.82;;;;;;;;;;5041607;28;20033;-60
2022/01/09 06:15:37;;;;;;;36.78;4.55;;;;;;;;;;5047639;28;20154;-60
2022/01/09 06:18:06;;;;;;;32.00;4.30;;;;;;;;;;5028915;28;20083;-60
2022/01/09 06:20:32;;;;;;;24.45;3.92;;;;;;;;;;5041830;28;20045;-60
2022/01/09 06:22:58;;;;;;;37.50;7.03;;;;;;;;;;5026665;28;20140;-60
2022/01/09 06:25:24;;;;;;;23.40;3.45;;;;;;;;;;5043274;28;20044;-60
2022/01/09 06:27:50;;;;;;;33.17;4.68;;;;;;;;;;5047402;28;20049;-60
2022/01/09 06:30:17;;;;;;;29.80;7.25;;;;;;;;;;5047766;28;20487;-60
2022/01/09 06:32:43;;;;;;;28.30;3.67;;;;;;;;;;5027975;28;20036;-60
2022/01/09 06:35:10;;;;;;;25.88;3.75;;;;;;;;;;5046636;28;20044;-60
2022/01/09 06:37:36;;;;;;;32.05;3.65;;;;;;;;;;5048765;28;20033;-60
2022/01/09 06:40:03;;;;;;;23.73;4.35;;;;;;;;;;5047369;28;20045;-60
2022/01/09 06:42:29;;;;;;;47.00;4.95;;;;;;;;;;5028127;28;20048;-60
2022/01/09 06:44:55;;;;;;;32.63;4.10;;;;;;;;;;5047965;28;20044;-60
2022/01/09 06:47:22;;;;;;;40.88;4.53;;;;;;;;;;5039475;28;20576;-60
2022/01/09 06:49:48;;;;;;;35.92;3.65;;;;;;;;;;5025641;28;20044;-60
2022/01/09 06:52:14;;;;;;;26.45;3.83;;;;;;;;;;5030841;28;20045;-60
2022/01/09 06:54:40;;;;;;;26.67;4.70;;;;;;;;;;5047596;28;20056;-60
2022/01/09 06:57:06;;;;;;;24.00;5.15;;;;;;;;;;5047364;28;20037;-59
2022/01/09 06:59:33;;;;;;;19.38;2.75;;;;;;;;;;5030842;28;20492;-59
2022/01/09 07:01:59;;;;;;;28.75;3.15;;;;;;;;;;5029595;28;20049;-59
2022/01/09 07:04:25;;;;;;;19.67;3.47;;;;;;;;;;5047815;28;20037;-59
2022/01/09 07:06:51;;;;;;;16.13;2.97;;;;;;;;;;5042002;28;20083;-59
2022/01/09 07:09:17;;;;;;;20.42;2.58;;;;;;;;;;5032182;28;20045;-60
2022/01/09 07:11:44;;;;;;;23.13;3.72;;;;;;;;;;5048764;28;20041;-59
2022/01/09 07:14:10;;;;;;;15.23;4.10;;;;;;;;;;5048493;28;20037;-59
2022/01/09 07:16:36;;;;;;;16.45;1.92;;;;;;;;;;5047073;28;20048;-60
2022/01/09 07:19:02;;;;;;;16.88;1.92;;;;;;;;;;5048513;28;20428;-60
2022/01/09 07:21:28;;;;;;;23.25;2.67;;;;;;;;;;5048024;28;20500;-59
2022/01/09 07:23:54;;;;;;;18.25;2.63;;;;;;;;;;5048341;28;20033;-65
2022/01/09 07:26:20;;;;;;;15.73;2.47;;;;;;;;;;5051707;28;20044;-59
2022/01/09 07:28:47;;;;;;;21.00;3.35;;;;;;;;;;5050574;28;20060;-59
2022/01/09 07:31:13;;;;;;;23.33;3.03;;;;;;;;;;5050763;28;20037;-59
2022/01/09 07:33:39;;;;;;;15.23;2.20;;;;;;;;;;5053702;28;20037;-59
2022/01/09 07:36:05;;;;;;;16.58;2.40;;;;;;;;;;5051727;28;20048;-60
2022/01/09 07:38:31;;;;;;;14.82;1.92;;;;;;;;;;5050773;28;20045;-59
2022/01/09 07:40:58;;;;;;;15.45;2.65;;;;;;;;;;5053427;28;20048;-59
2022/01/09 07:43:24;;;;;;;17.70;3.78;;;;;;;;;;5052172;28;20401;-59
2022/01/09 07:45:50;;;;;;;20.33;3.13;;;;;;;;;;5051385;28;20543;-59
2022/01/09 07:48:16;;;;;;;18.73;2.58;;;;;;;;;;5049123;28;20041;-60
2022/01/09 07:50:42;;;;;;;17.35;2.67;;;;;;;;;;5055189;28;20409;-61
2022/01/09 07:53:09;;;;;;;19.67;2.72;;;;;;;;;;5051359;28;20052;-59
2022/01/09 07:55:35;;;;;;;19.90;2.90;;;;;;;;;;5051479;28;20041;-59
2022/01/09 07:58:01;;;;;;;21.05;2.65;;;;;;;;;;5050733;28;20040;-60
2022/01/09 08:00:27;;;;;;;24.65;2.72;;;;;;;;;;5020981;28;20053;-60
2022/01/09 08:02:53;;;;;;;23.10;4.13;;;;;;;;;;5053923;28;20052;-60
2022/01/09 08:05:19;;;;;;;17.00;2.88;;;;;;;;;;5051987;28;20059;-60
2022/01/09 08:07:46;;;;;;;39.38;6.35;;;;;;;;;;5053599;28;20419;-60
2022/01/09 08:10:12;;;;;;;24.52;3.10;;;;;;;;;;5039334;28;20048;-60
2022/01/09 08:12:38;;;;;;;21.98;3.60;;;;;;;;;;5052436;28;20041;-60
2022/01/09 08:15:05;;;;;;;25.98;3.90;;;;;;;;;;5052898;28;20063;-60
2022/01/09 08:17:32;;;;;;;20.90;3.08;;;;;;;;;;5053063;28;20104;-60
2022/01/09 08:19:58;;;;;;;20.13;3.58;;;;;;;;;;5051978;28;20048;-60
2022/01/09 08:22:29;;;;;;;22.50;4.13;;;;;;;;;;5052454;28;20044;-60
2022/01/09 08:24:55;;;;;;;19.05;2.65;;;;;;;;;;5051247;28;20047;-60
2022/01/09 08:27:21;;;;;;;20.45;3.20;;;;;;;;;;5032024;28;20053;-60
2022/01/09 08:29:48;;;;;;;14.98;2.40;;;;;;;;;;5048185;28;20120;-59
2022/01/09 08:32:14;;;;;;;12.30;2.22;;;;;;;;;;5051734;28;20465;-60
2022/01/09 08:34:40;;;;;;;11.85;2.22;;;;;;;;;;5051091;28;20056;-60
2022/01/09 08:37:11;;;;;;;14.98;2.03;;;;;;;;;;5051596;28;20052;-60
2022/01/09 08:39:38;;;;;;;20.05;3.88;;;;;;;;;;5052580;28;20084;-59
2022/01/09 08:42:05;;;;;;;10.38;1.60;;;;;;;;;;5052393;28;20051;-60
2022/01/09 08:44:31;;;;;;;11.98;1.70;;;;;;;;;;5054132;28;20060;-60
2022/01/09 08:46:57;;;;;;;10.27;1.80;;;;;;;;;;5053574;28;20041;-60
2022/01/09 08:49:23;;;;;;;13.98;1.90;;;;;;;;;;5054386;28;20037;-60
2022/01/09 08:51:49;;;;;;;10.63;1.40;;;;;;;;;;5054140;28;20618;-60
2022/01/09 08:54:15;;;;;;;14.93;2.00;;;;;;;;;;5035392;28;20044;-60
2022/01/09 08:56:41;;;;;;;12.40;2.00;;;;;;;;;;5036011;28;20049;-60
2022/01/09 08:59:08;;;;;;;9.60;1.75;;;;;;;;;;5054198;28;20049;-60
2022/01/09 09:01:34;;;;;;;20.45;2.88;;;;;;;;;;5035465;28;20088;-60
2022/01/09 09:04:00;;;;;;;13.05;1.83;;;;;;;;;;5054144;28;20079;-60
2022/01/09 09:06:26;;;;;;;15.60;2.40;;;;;;;;;;5053944;28;20065;-60
2022/01/09 09:08:52;;;;;;;12.90;2.50;;;;;;;;;;5053093;28;20085;-60
2022/01/09 09:11:18;;;;;;;20.35;2.25;;;;;;;;;;5054178;28;20056;-60
2022/01/09 09:13:45;;;;;;;19.15;2.80;;;;;;;;;;5036217;28;20045;-60
2022/01/09 09:16:11;;;;;;;18.38;2.65;;;;;;;;;;5053048;28;20083;-60
2022/01/09 09:18:37;;;;;;;15.82;2.55;;;;;;;;;;5035994;28;20049;-60
2022/01/09 09:21:03;;;;;;;29.80;3.83;;;;;;;;;;5054202;28;20044;-60
2022/01/09 09:23:30;;;;;;;14.00;2.83;;;;;;;;;;5053093;28;20203;-60
2022/01/09 09:25:56;;;;;;;18.00;2.38;;;;;;;;;;5053617;28;20116;-60
2022/01/09 09:28:22;;;;;;;14.73;2.10;;;;;;;;;;5053704;28;20148;-60
2022/01/09 09:30:48;;;;;;;27.52;2.67;;;;;;;;;;5052827;28;20106;-60
2022/01/09 09:33:14;;;;;;;15.43;2.78;;;;;;;;;;5053452;28;20443;-60
2022/01/09 09:35:41;;;;;;;13.43;2.20;;;;;;;;;;5053596;28;20080;-60
2022/01/09 09:38:07;;;;;;;14.73;2.67;;;;;;;;;;5052721;28;20056;-60
2022/01/09 09:40:33;;;;;;;15.63;2.30;;;;;;;;;;5053515;28;20045;-60
2022/01/09 09:42:59;;;;;;;19.83;3.90;;;;;;;;;;5052604;28;20041;-60
2022/01/09 09:45:26;;;;;;;17.90;1.90;;;;;;;;;;5052271;28;20108;-61
2022/01/09 09:47:53;;;;;;;15.85;3.15;;;;;;;;;;5052903;28;20056;-60
2022/01/09 09:50:20;;;;;;;21.85;2.67;;;;;;;;;;5034267;28;20372;-60
2022/01/09 09:52:47;;;;;;;15.70;2.08;;;;;;;;;;5053195;28;20528;-60
2022/01/09 09:55:13;;;;;;;20.27;2.17;;;;;;;;;;5053114;28;20463;-60
2022/01/09 09:57:39;;;;;;;13.00;2.33;;;;;;;;;;5052403;28;20123;-60
2022/01/09 10:00:07;;;;;;;11.88;2.13;;;;;;;;;;5053082;28;20395;-60
2022/01/09 10:02:40;;;;;;;11.25;2.00;;;;;;;;;;5052873;28;20049;-60
2022/01/09 10:05:07;;;;;;;15.63;2.50;;;;;;;;;;5034141;28;20098;-61
2022/01/09 10:07:33;;;;;;;17.40;3.40;;;;;;;;;;5052910;28;20060;-60
2022/01/09 10:10:01;;;;;;;12.75;2.15;;;;;;;;;;5035172;28;20067;-60
2022/01/09 10:12:28;;;;;;;12.55;2.10;;;;;;;;;;5051996;28;20055;-60
2022/01/09 10:14:56;;;;;;;10.32;2.17;;;;;;;;;;5052631;28;20041;-60
2022/01/09 10:17:24;;;;;;;10.60;1.63;;;;;;;;;;5053005;28;20059;-60
2022/01/09 10:19:52;;;;;;;17.00;2.17;;;;;;;;;;5051735;28;20053;-60
2022/01/09 10:22:22;;;;;;;17.77;3.10;;;;;;;;;;5052782;28;20037;-60
2022/01/09 10:24:48;;;;;;;16.55;1.88;;;;;;;;;;5034807;28;20101;-60
2022/01/09 10:27:30;;;;;;;14.18;2.60;;;;;;;;;;5051671;28;20369;-60
2022/01/09 10:29:57;;;;;;;15.20;2.55;;;;;;;;;;5052534;28;20477;-60
2022/01/09 10:32:30;;;;;;;14.43;1.85;;;;;;;;;;5051757;28;20045;-60
2022/01/09 10:35:11;;;;;;;17.00;2.80;;;;;;;;;;5052473;28;20120;-60
2022/01/09 10:37:38;;;;;;;8.68;2.00;;;;;;;;;;5034453;28;20049;-60
2022/01/09 10:40:05;;;;;;;15.50;2.20;;;;;;;;;;5033441;28;20041;-60
2022/01/09 10:42:32;;;;;;;11.32;2.42;;;;;;;;;;5052355;28;20119;-60
2022/01/09 10:45:15;;;;;;;18.25;4.32;;;;;;;;;;5052379;28;20140;-60
2022/01/09 10:47:41;;;;;;;15.88;3.75;;;;;;;;;;5033454;28;20194;-60
2022/01/09 10:50:08;;;;;;;19.08;3.20;;;;;;;;;;5052004;28;20064;-60
2022/01/09 10:52:38;;;;;;;18.92;3.30;;;;;;;;;;5034163;28;20047;-60
2022/01/09 10:55:07;;;;;;;16.77;2.33;;;;;;;;;;5051463;28;20091;-60
2022/01/09 10:57:37;;;;;;;25.35;4.32;;;;;;;;;;5051742;28;20091;-60
2022/01/09 11:00:12;;;;;;;13.90;2.22;;;;;;;;;;5051808;28;20489;-60
2022/01/09 11:02:38;;;;;;;19.05;2.38;;;;;;;;;;5051256;28;20112;-60
2022/01/09 11:05:04;;;;;;;19.80;3.70;;;;;;;;;;5051706;28;20056;-61
2022/01/09 11:07:32;;;;;;;20.98;3.55;;;;;;;;;;5051385;28;20052;-60
2022/01/09 11:09:59;;;;;;;17.05;2.50;;;;;;;;;;5033857;28;20055;-60
2022/01/09 11:12:35;;;;;;;18.38;4.20;;;;;;;;;;5052005;28;20079;-60
2022/01/09 11:15:01;;;;;;;26.55;3.28;;;;;;;;;;5051228;28;20475;-60
2022/01/09 11:17:28;;;;;;;15.70;2.88;;;;;;;;;;5051804;28;20384;-60
2022/01/09 11:19:54;;;;;;;12.48;1.85;;;;;;;;;;5033872;28;20056;-60
2022/01/09 11:22:21;;;;;;;20.10;2.60;;;;;;;;;;5033398;28;20504;-60
2022/01/09 11:24:50;;;;;;;11.48;2.95;;;;;;;;;;5034114;28;20076;-60
2022/01/09 11:27:20;;;;;;;19.02;3.30;;;;;;;;;;5033771;28;20368;-60
2022/01/09 11:29:58;;;;;;;16.50;2.67;;;;;;;;;;5050999;28;20072;-60
2022/01/09 11:32:48;;;;;;;15.55;2.50;;;;;;;;;;5051941;28;20041;-60
2022/01/09 11:35:29;;;;;;;16.35;1.95;;;;;;;;;;5051785;28;20404;-61
2022/01/09 11:37:56;;;;;;;12.60;2.53;;;;;;;;;;5033605;28;20048;-60
2022/01/09 11:40:25;;;;;;;21.67;2.65;;;;;;;;;;5033827;28;20049;-60
2022/01/09 11:43:00;;;;;;;16.60;2.67;;;;;;;;;;5051105;28;20059;-60
2022/01/09 11:45:40;;;;;;;13.55;2.55;;;;;;;;;;5051726;28;20051;-60
2022/01/09 11:48:06;;;;;;;15.50;2.50;;;;;;;;;;5051844;28;20163;-60
2022/01/09 11:50:33;;;;;;;14.88;2.58;;;;;;;;;;5050818;28;20127;-60
2022/01/09 11:53:00;;;;;;;20.75;2.55;;;;;;;;;;5051702;28;20102;-60
2022/01/09 11:55:35;;;;;;;13.80;2.67;;;;;;;;;;5033665;28;20083;-60
2022/01/09 11:58:03;;;;;;;15.75;2.20;;;;;;;;;;5050740;28;20056;-60
2022/01/09 12:00:35;;;;;;;12.95;2.10;;;;;;;;;;5033756;28;20092;-60
2022/01/09 12:03:21;;;;;;;17.92;3.15;;;;;;;;;;5051574;28;20048;-61
2022/01/09 12:06:04;;;;;;;17.85;2.90;;;;;;;;;;5050375;28;20103;-60
2022/01/09 12:09:02;;;;;;;19.52;2.33;;;;;;;;;;5034129;28;20045;-61
2022/01/09 12:11:47;;;;;;;12.57;2.58;;;;;;;;;;5036095;28;20505;-61
2022/01/09 12:14:33;;;;;;;15.18;2.38;;;;;;;;;;5054961;28;20469;-60
2022/01/09 12:16:59;;;;;;;16.50;2.22;;;;;;;;;;5055171;28;20346;-60
2022/01/09 12:19:44;;;;;;;15.77;3.08;;;;;;;;;;5054334;28;20453;-60
2022/01/09 12:22:11;;;;;;;23.23;3.65;;;;;;;;;;5037121;28;20123;-60
2022/01/09 12:24:38;;;;;;;13.98;2.55;;;;;;;;;;5055159;28;20102;-60
2022/01/09 12:27:23;;;;;;;15.43;1.83;;;;;;;;;;5036136;28;20049;-60
2022/01/09 12:29:49;;;;;;;17.83;2.15;;;;;;;;;;5054806;28;20049;-60
2022/01/09 12:32:38;;;;;;;11.65;1.77;;;;;;;;;;5054007;28;20079;-60
2022/01/09 12:35:21;;;;;;;16.45;2.13;;;;;;;;;;5054671;28;20445;-60
2022/01/09 12:37:48;;;;;;;12.57;2.05;;;;;;;;;;5054792;28;20053;-60
2022/01/09 12:40:15;;;;;;;12.27;2.72;;;;;;;;;;5053994;28;20365;-60
2022/01/09 12:42:46;;;;;;;10.82;2.08;;;;;;;;;;5054414;28;20067;-60
2022/01/09 12:45:25;;;;;;;15.07;2.10;;;;;;;;;;5036707;28;20053;-60
2022/01/09 12:47:52;;;;;;;11.55;1.92;;;;;;;;;;5053806;28;20052;-61
2022/01/09 12:50:26;;;;;;;14.30;1.92;;;;;;;;;;5036642;28;20481;-60
2022/01/09 12:52:52;;;;;;;8.43;1.30;;;;;;;;;;5036093;28;20060;-60
2022/01/09 12:55:18;;;;;;;10.05;1.67;;;;;;;;;;5036484;28;20041;-60
2022/01/09 12:57:51;;;;;;;11.40;1.95;;;;;;;;;;5054475;28;20135;-60
2022/01/09 13:00:25;;;;;;;10.25;1.55;;;;;;;;;;5053610;28;20131;-60
2022/01/09 13:02:52;;;;;;;5.28;1.08;;;;;;;;;;5054386;28;20465;-60
2022/01/09 13:05:23;;;;;;;7.93;2.08;;;;;;;;;;5053874;28;20386;-60
2022/01/09 13:07:57;;;;;;;13.73;1.95;;;;;;;;;;5035738;28;20098;-60
2022/01/09 13:10:30;;;;;;;10.45;1.98;;;;;;;;;;5054223;28;20041;-60
2022/01/09 13:13:02;;;;;;;5.28;1.75;;;;;;;;;;5054224;28;20056;-60
2022/01/09 13:15:32;;;;;;;8.75;1.85;;;;;;;;;;5053184;28;20400;-60
2022/01/09 13:17:58;;;;;;;7.47;1.25;;;;;;;;;;5053970;28;20041;-61
2022/01/09 13:20:24;;;;;;;7.70;1.25;;;;;;;;;;5035730;28;20477;-60
2022/01/09 13:23:02;;;;;;;11.88;3.08;;;;;;;;;;5053143;28;20083;-61
2022/01/09 13:25:28;;;;;;;10.55;1.83;;;;;;;;;;5053772;28;20110;-61
2022/01/09 13:27:54;;;;;;;9.18;1.45;;;;;;;;;;5053737;28;20048;-61
2022/01/09 13:30:22;;;;;;;11.60;1.38;;;;;;;;;;5035103;28;20154;-60
2022/01/09 13:32:48;;;;;;;14.93;2.00;;;;;;;;;;5035444;28;20429;-60
2022/01/09 13:35:14;;;;;;;8.70;1.88;;;;;;;;;;5052738;28;20447;-60
2022/01/09 13:37:40;;;;;;;7.82;1.52;;;;;;;;;;5053516;28;20489;-60
2022/01/09 13:40:07;;;;;;;12.88;2.22;;;;;;;;;;5035590;28;20119;-60
2022/01/09 13:42:34;;;;;;;7.68;1.65;;;;;;;;;;5052776;28;20045;-60
2022/01/09 13:45:02;;;;;;;14.40;1.80;;;;;;;;;;5035410;28;20052;-60
2022/01/09 13:47:28;;;;;;;11.80;1.92;;;;;;;;;;5053236;28;20404;-60
2022/01/09 13:49:54;;;;;;;10.40;2.10;;;;;;;;;;5052496;28;20171;-60
2022/01/09 13:52:22;;;;;;;11.35;1.90;;;;;;;;;;5053512;28;20130;-60
2022/01/09 13:55:00;;;;;;;16.42;2.25;;;;;;;;;;5053340;28;20392;-60
2022/01/09 13:57:27;;;;;;;15.70;1.88;;;;;;;;;;5052429;28;20102;-60
2022/01/09 13:59:54;;;;;;;11.13;2.40;;;;;;;;;;5053012;28;20176;-60
2022/01/09 14:02:22;;;;;;;10.50;2.30;;;;;;;;;;5053337;28;20178;-60
2022/01/09 14:05:08;;;;;;;11.32;2.05;;;;;;;;;;5052418;28;20036;-60
2022/01/09 14:07:36;;;;;;;16.73;2.33;;;;;;;;;;5015029;28;20459;-60
2022/01/09 14:10:03;;;;;;;13.63;2.13;;;;;;;;;;5033197;28;20442;-60
2022/01/09 14:12:31;;;;;;;11.48;2.42;;;;;;;;;;5032024;28;20180;-60
2022/01/09 14:14:57;;;;;;;16.45;2.33;;;;;;;;;;5032813;28;20076;-60
2022/01/09 14:17:26;;;;;;;15.13;3.42;;;;;;;;;;5032036;28;20497;-60
2022/01/09 14:19:53;;;;;;;15.00;4.15;;;;;;;;;;5032961;28;20121;-60
2022/01/09 14:22:20;;;;;;;12.82;2.03;;;;;;;;;;5032821;28;20041;-60
2022/01/09 14:24:57;;;;;;;10.75;2.33;;;;;;;;;;5031932;28;20489;-60
2022/01/09 14:27:25;;;;;;;11.60;2.33;;;;;;;;;;5032702;28;20400;-60
2022/01/09 14:29:51;;;;;;;13.98;2.10;;;;;;;;;;5032913;28;20149;-60
2022/01/09 14:32:18;;;;;;;12.65;2.08;;;;;;;;;;5013462;28;20053;-60